sensor_id;sensor_type;location;lat;lon;timestamp;pressure;altitude;pressure_sealevel;temperature;humidity
77381;BME280;66439;50.106;10.996;2023-04-24T00:00:56;97586.64;;;13.86;63.60
77381;BME280;66439;50.106;10.996;2023-04-24T00:03:06;97578.05;;;13.82;63.79
77381;BME280;66439;50.106;10.996;2023-04-24T00:05:20;97576.98;;;13.77;64.04
77381;BME280;66439;50.106;10.996;2023-04-24T00:07:36;97575.84;;;13.72;63.84
77381;BME280;66439;50.106;10.996;2023-04-24T00:09:44;97577.34;;;13.68;63.98
77381;BME280;66439;50.106;10.996;2023-04-24T00:11:51;97580.52;;;13.69;63.99
77381;BME280;66439;50.106;10.996;2023-04-24T00:13:58;97580.54;;;13.70;63.91
77381;BME280;66439;50.106;10.996;2023-04-24T00:16:05;97573.92;;;13.73;63.96
77381;BME280;66439;50.106;10.996;2023-04-24T00:18:11;97575.50;;;13.74;64.09
77381;BME280;66439;50.106;10.996;2023-04-24T00:20:17;97577.44;;;13.77;63.99
77381;BME280;66439;50.106;10.996;2023-04-24T00:22:27;97577.27;;;13.77;63.92
77381;BME280;66439;50.106;10.996;2023-04-24T00:24:41;97576.75;;;13.77;63.82
77381;BME280;66439;50.106;10.996;2023-04-24T00:26:48;97576.18;;;13.78;63.92
77381;BME280;66439;50.106;10.996;2023-04-24T00:29:00;97573.70;;;13.79;63.80
77381;BME280;66439;50.106;10.996;2023-04-24T00:31:10;97574.51;;;13.79;63.64
77381;BME280;66439;50.106;10.996;2023-04-24T00:33:15;97576.02;;;13.78;63.55
77381;BME280;66439;50.106;10.996;2023-04-24T00:35:20;97573.55;;;13.75;63.82
77381;BME280;66439;50.106;10.996;2023-04-24T00:37:27;97567.36;;;13.73;63.68
77381;BME280;66439;50.106;10.996;2023-04-24T00:39:33;97569.28;;;13.71;63.70
77381;BME280;66439;50.106;10.996;2023-04-24T00:41:42;97569.65;;;13.68;63.58
77381;BME280;66439;50.106;10.996;2023-04-24T00:43:52;97567.91;;;13.64;63.69
77381;BME280;66439;50.106;10.996;2023-04-24T00:46:06;97567.41;;;13.61;63.56
77381;BME280;66439;50.106;10.996;2023-04-24T00:48:13;97561.14;;;13.58;63.66
77381;BME280;66439;50.106;10.996;2023-04-24T00:50:37;97562.61;;;13.57;63.49
77381;BME280;66439;50.106;10.996;2023-04-24T00:52:47;97571.95;;;13.55;63.42
77381;BME280;66439;50.106;10.996;2023-04-24T00:54:53;97569.00;;;13.52;63.59
77381;BME280;66439;50.106;10.996;2023-04-24T00:57:01;97566.90;;;13.48;63.53
77381;BME280;66439;50.106;10.996;2023-04-24T00:59:06;97567.89;;;13.48;63.49
77381;BME280;66439;50.106;10.996;2023-04-24T01:01:14;97572.69;;;13.48;63.64
77381;BME280;66439;50.106;10.996;2023-04-24T01:03:22;97569.57;;;13.47;63.53
77381;BME280;66439;50.106;10.996;2023-04-24T01:05:26;97567.09;;;13.46;63.41
77381;BME280;66439;50.106;10.996;2023-04-24T01:07:38;97561.86;;;13.44;63.62
77381;BME280;66439;50.106;10.996;2023-04-24T01:09:44;97560.15;;;13.41;63.76
77381;BME280;66439;50.106;10.996;2023-04-24T01:11:50;97559.84;;;13.37;63.62
77381;BME280;66439;50.106;10.996;2023-04-24T01:13:53;97559.30;;;13.40;63.59
77381;BME280;66439;50.106;10.996;2023-04-24T01:15:57;97556.52;;;13.42;63.77
77381;BME280;66439;50.106;10.996;2023-04-24T01:18:02;97560.55;;;13.45;63.38
77381;BME280;66439;50.106;10.996;2023-04-24T01:20:06;97564.38;;;13.46;63.39
77381;BME280;66439;50.106;10.996;2023-04-24T01:22:15;97565.45;;;13.46;63.40
77381;BME280;66439;50.106;10.996;2023-04-24T01:24:19;97572.10;;;13.46;63.38
77381;BME280;66439;50.106;10.996;2023-04-24T01:26:22;97567.31;;;13.46;63.56
77381;BME280;66439;50.106;10.996;2023-04-24T01:28:27;97571.40;;;13.43;63.41
77381;BME280;66439;50.106;10.996;2023-04-24T01:30:30;97570.52;;;13.42;63.46
77381;BME280;66439;50.106;10.996;2023-04-24T01:32:34;97564.41;;;13.39;63.48
77381;BME280;66439;50.106;10.996;2023-04-24T01:34:39;97558.79;;;13.38;63.49
77381;BME280;66439;50.106;10.996;2023-04-24T01:36:42;97552.69;;;13.38;63.56
77381;BME280;66439;50.106;10.996;2023-04-24T01:38:48;97554.76;;;13.39;63.30
77381;BME280;66439;50.106;10.996;2023-04-24T01:40:52;97552.33;;;13.40;63.28
77381;BME280;66439;50.106;10.996;2023-04-24T01:42:55;97552.15;;;13.38;63.37
77381;BME280;66439;50.106;10.996;2023-04-24T01:44:59;97551.48;;;13.36;63.22
77381;BME280;66439;50.106;10.996;2023-04-24T01:47:06;97552.54;;;13.34;63.20
77381;BME280;66439;50.106;10.996;2023-04-24T01:49:10;97550.03;;;13.32;63.35
77381;BME280;66439;50.106;10.996;2023-04-24T01:51:14;97550.27;;;13.30;63.39
77381;BME280;66439;50.106;10.996;2023-04-24T01:53:17;97548.86;;;13.28;63.36
77381;BME280;66439;50.106;10.996;2023-04-24T01:55:21;97552.70;;;13.28;63.24
77381;BME280;66439;50.106;10.996;2023-04-24T01:57:25;97557.23;;;13.28;63.14
77381;BME280;66439;50.106;10.996;2023-04-24T01:59:33;97554.48;;;13.26;63.42
77381;BME280;66439;50.106;10.996;2023-04-24T02:01:36;97550.30;;;13.24;63.14
77381;BME280;66439;50.106;10.996;2023-04-24T02:03:39;97549.37;;;13.23;63.03
77381;BME280;66439;50.106;10.996;2023-04-24T02:05:46;97548.18;;;13.21;63.36
77381;BME280;66439;50.106;10.996;2023-04-24T02:07:50;97550.20;;;13.19;63.37
77381;BME280;66439;50.106;10.996;2023-04-24T02:09:54;97547.20;;;13.16;63.45
77381;BME280;66439;50.106;10.996;2023-04-24T02:11:58;97544.66;;;13.12;63.48
77381;BME280;66439;50.106;10.996;2023-04-24T02:14:02;97543.62;;;13.13;63.60
77381;BME280;66439;50.106;10.996;2023-04-24T02:16:06;97547.39;;;13.14;63.43
77381;BME280;66439;50.106;10.996;2023-04-24T02:18:09;97548.41;;;13.15;63.66
77381;BME280;66439;50.106;10.996;2023-04-24T02:20:15;97550.77;;;13.16;63.59
77381;BME280;66439;50.106;10.996;2023-04-24T02:22:18;97548.09;;;13.14;63.78
77381;BME280;66439;50.106;10.996;2023-04-24T02:24:21;97547.55;;;13.14;63.64
77381;BME280;66439;50.106;10.996;2023-04-24T02:26:24;97541.77;;;13.12;63.50
77381;BME280;66439;50.106;10.996;2023-04-24T02:28:29;97535.77;;;13.11;63.48
77381;BME280;66439;50.106;10.996;2023-04-24T02:30:33;97535.29;;;13.08;63.65
77381;BME280;66439;50.106;10.996;2023-04-24T02:32:37;97533.94;;;13.08;63.50
77381;BME280;66439;50.106;10.996;2023-04-24T02:34:42;97532.59;;;13.07;63.55
77381;BME280;66439;50.106;10.996;2023-04-24T02:36:44;97529.87;;;13.05;63.46
77381;BME280;66439;50.106;10.996;2023-04-24T02:38:47;97530.36;;;13.03;63.39
77381;BME280;66439;50.106;10.996;2023-04-24T02:40:52;97525.98;;;13.02;63.39
77381;BME280;66439;50.106;10.996;2023-04-24T02:42:55;97520.29;;;12.98;63.35
77381;BME280;66439;50.106;10.996;2023-04-24T02:44:59;97524.73;;;12.97;63.17
77381;BME280;66439;50.106;10.996;2023-04-24T02:47:02;97525.35;;;12.94;63.37
77381;BME280;66439;50.106;10.996;2023-04-24T02:49:06;97524.98;;;12.92;63.21
77381;BME280;66439;50.106;10.996;2023-04-24T02:51:11;97518.85;;;12.90;63.35
77381;BME280;66439;50.106;10.996;2023-04-24T02:53:14;97515.52;;;12.87;63.29
77381;BME280;66439;50.106;10.996;2023-04-24T02:55:17;97512.14;;;12.86;63.38
77381;BME280;66439;50.106;10.996;2023-04-24T02:57:20;97511.80;;;12.84;63.43
77381;BME280;66439;50.106;10.996;2023-04-24T02:59:24;97515.35;;;12.82;63.35
77381;BME280;66439;50.106;10.996;2023-04-24T03:01:27;97513.52;;;12.82;63.38
77381;BME280;66439;50.106;10.996;2023-04-24T03:03:30;97512.82;;;12.82;63.45
77381;BME280;66439;50.106;10.996;2023-04-24T03:05:33;97508.80;;;12.81;63.50
77381;BME280;66439;50.106;10.996;2023-04-24T03:07:38;97504.13;;;12.80;63.65
77381;BME280;66439;50.106;10.996;2023-04-24T03:09:47;97504.08;;;12.82;63.54
77381;BME280;66439;50.106;10.996;2023-04-24T03:11:50;97507.16;;;12.83;63.61
77381;BME280;66439;50.106;10.996;2023-04-24T03:13:54;97502.77;;;12.87;63.86
77381;BME280;66439;50.106;10.996;2023-04-24T03:15:57;97504.88;;;12.89;63.96
77381;BME280;66439;50.106;10.996;2023-04-24T03:18:03;97502.73;;;12.92;63.91
77381;BME280;66439;50.106;10.996;2023-04-24T03:20:07;97507.36;;;12.93;64.14
77381;BME280;66439;50.106;10.996;2023-04-24T03:22:11;97504.45;;;12.95;64.19
77381;BME280;66439;50.106;10.996;2023-04-24T03:24:14;97502.11;;;12.95;64.31
77381;BME280;66439;50.106;10.996;2023-04-24T03:26:18;97506.95;;;12.96;64.57
77381;BME280;66439;50.106;10.996;2023-04-24T03:28:32;97502.15;;;12.98;64.61
77381;BME280;66439;50.106;10.996;2023-04-24T03:30:39;97497.83;;;12.99;64.58
77381;BME280;66439;50.106;10.996;2023-04-24T03:32:42;97498.59;;;12.99;64.76
77381;BME280;66439;50.106;10.996;2023-04-24T03:34:48;97498.68;;;13.00;64.72
77381;BME280;66439;50.106;10.996;2023-04-24T03:36:52;97500.19;;;13.01;64.91
77381;BME280;66439;50.106;10.996;2023-04-24T03:38:56;97497.41;;;13.00;64.90
77381;BME280;66439;50.106;10.996;2023-04-24T03:41:08;97492.92;;;13.01;64.72
77381;BME280;66439;50.106;10.996;2023-04-24T03:43:16;97494.20;;;13.00;64.82
77381;BME280;66439;50.106;10.996;2023-04-24T03:45:20;97500.05;;;12.98;64.89
77381;BME280;66439;50.106;10.996;2023-04-24T03:47:24;97500.03;;;12.97;65.24
77381;BME280;66439;50.106;10.996;2023-04-24T03:49:28;97503.40;;;12.97;65.02
77381;BME280;66439;50.106;10.996;2023-04-24T03:51:32;97510.04;;;13.00;64.75
77381;BME280;66439;50.106;10.996;2023-04-24T03:53:44;97508.45;;;13.05;64.81
77381;BME280;66439;50.106;10.996;2023-04-24T03:55:51;97511.57;;;13.05;65.04
77381;BME280;66439;50.106;10.996;2023-04-24T03:57:53;97513.52;;;13.07;65.04
77381;BME280;66439;50.106;10.996;2023-04-24T03:59:57;97514.01;;;13.07;65.07
77381;BME280;66439;50.106;10.996;2023-04-24T04:02:00;97511.96;;;13.09;64.95
77381;BME280;66439;50.106;10.996;2023-04-24T04:04:04;97511.58;;;13.10;64.97
77381;BME280;66439;50.106;10.996;2023-04-24T04:06:08;97514.80;;;13.09;64.80
77381;BME280;66439;50.106;10.996;2023-04-24T04:08:17;97516.02;;;13.06;64.96
77381;BME280;66439;50.106;10.996;2023-04-24T04:10:21;97515.95;;;13.04;65.01
77381;BME280;66439;50.106;10.996;2023-04-24T04:12:24;97516.33;;;13.02;65.04
77381;BME280;66439;50.106;10.996;2023-04-24T04:14:28;97513.33;;;13.03;64.95
77381;BME280;66439;50.106;10.996;2023-04-24T04:16:32;97515.91;;;13.04;64.95
77381;BME280;66439;50.106;10.996;2023-04-24T04:18:38;97511.82;;;13.05;64.56
77381;BME280;66439;50.106;10.996;2023-04-24T04:20:43;97509.64;;;13.05;64.72
77381;BME280;66439;50.106;10.996;2023-04-24T04:22:47;97511.38;;;13.04;64.59
77381;BME280;66439;50.106;10.996;2023-04-24T04:24:56;97505.74;;;13.03;64.75
77381;BME280;66439;50.106;10.996;2023-04-24T04:27:01;97505.86;;;13.02;64.57
77381;BME280;66439;50.106;10.996;2023-04-24T04:29:08;97507.38;;;13.00;64.61
77381;BME280;66439;50.106;10.996;2023-04-24T04:31:16;97510.95;;;12.99;64.62
77381;BME280;66439;50.106;10.996;2023-04-24T04:33:21;97514.34;;;12.97;64.53
77381;BME280;66439;50.106;10.996;2023-04-24T04:35:25;97508.66;;;12.94;64.59
77381;BME280;66439;50.106;10.996;2023-04-24T04:37:30;97511.20;;;12.95;64.47
77381;BME280;66439;50.106;10.996;2023-04-24T04:39:54;97515.04;;;12.95;64.34
77381;BME280;66439;50.106;10.996;2023-04-24T04:42:01;97511.23;;;12.92;64.24
77381;BME280;66439;50.106;10.996;2023-04-24T04:44:10;97513.89;;;12.90;64.40
77381;BME280;66439;50.106;10.996;2023-04-24T04:46:16;97509.45;;;12.90;64.49
77381;BME280;66439;50.106;10.996;2023-04-24T04:48:35;97509.83;;;12.89;64.45
77381;BME280;66439;50.106;10.996;2023-04-24T04:50:40;97511.38;;;12.90;64.38
77381;BME280;66439;50.106;10.996;2023-04-24T04:52:48;97508.92;;;12.90;64.38
77381;BME280;66439;50.106;10.996;2023-04-24T04:55:02;97512.75;;;12.93;64.24
77381;BME280;66439;50.106;10.996;2023-04-24T04:57:25;97514.09;;;12.96;64.18
77381;BME280;66439;50.106;10.996;2023-04-24T04:59:28;97515.23;;;12.96;64.02
77381;BME280;66439;50.106;10.996;2023-04-24T05:01:52;97513.40;;;12.98;63.89
77381;BME280;66439;50.106;10.996;2023-04-24T05:03:56;97513.10;;;12.97;63.89
77381;BME280;66439;50.106;10.996;2023-04-24T05:06:01;97512.61;;;12.96;63.87
77381;BME280;66439;50.106;10.996;2023-04-24T05:08:07;97513.00;;;12.97;63.75
77381;BME280;66439;50.106;10.996;2023-04-24T05:10:27;97516.14;;;12.96;63.82
77381;BME280;66439;50.106;10.996;2023-04-24T05:12:34;97520.58;;;12.95;63.82
77381;BME280;66439;50.106;10.996;2023-04-24T05:14:43;97524.43;;;12.93;63.93
77381;BME280;66439;50.106;10.996;2023-04-24T05:16:47;97527.44;;;12.92;63.90
77381;BME280;66439;50.106;10.996;2023-04-24T05:18:50;97528.19;;;12.90;63.86
77381;BME280;66439;50.106;10.996;2023-04-24T05:20:56;97530.20;;;12.89;64.11
77381;BME280;66439;50.106;10.996;2023-04-24T05:23:01;97533.98;;;12.88;64.03
77381;BME280;66439;50.106;10.996;2023-04-24T05:25:04;97534.51;;;12.89;63.97
77381;BME280;66439;50.106;10.996;2023-04-24T05:27:16;97536.75;;;12.89;64.12
77381;BME280;66439;50.106;10.996;2023-04-24T05:29:22;97535.83;;;12.90;64.02
77381;BME280;66439;50.106;10.996;2023-04-24T05:31:26;97532.14;;;12.97;64.11
77381;BME280;66439;50.106;10.996;2023-04-24T05:33:30;97535.61;;;13.00;63.92
77381;BME280;66439;50.106;10.996;2023-04-24T05:35:33;97534.71;;;13.03;63.84
77381;BME280;66439;50.106;10.996;2023-04-24T05:37:39;97539.67;;;13.05;63.95
77381;BME280;66439;50.106;10.996;2023-04-24T05:39:42;97543.31;;;13.10;63.99
77381;BME280;66439;50.106;10.996;2023-04-24T05:41:45;97548.46;;;13.13;63.67
77381;BME280;66439;50.106;10.996;2023-04-24T05:43:48;97548.91;;;13.14;63.68
77381;BME280;66439;50.106;10.996;2023-04-24T05:45:51;97543.73;;;13.14;63.59
77381;BME280;66439;50.106;10.996;2023-04-24T05:47:55;97546.27;;;13.15;63.51
77381;BME280;66439;50.106;10.996;2023-04-24T05:49:58;97546.65;;;13.13;63.55
77381;BME280;66439;50.106;10.996;2023-04-24T05:52:01;97549.98;;;13.10;63.39
77381;BME280;66439;50.106;10.996;2023-04-24T05:54:06;97550.88;;;13.11;63.47
77381;BME280;66439;50.106;10.996;2023-04-24T05:56:11;97549.33;;;13.13;63.39
77381;BME280;66439;50.106;10.996;2023-04-24T05:58:14;97554.11;;;13.14;63.56
77381;BME280;66439;50.106;10.996;2023-04-24T06:00:17;97550.98;;;13.13;63.45
77381;BME280;66439;50.106;10.996;2023-04-24T06:02:27;97552.65;;;13.10;63.49
77381;BME280;66439;50.106;10.996;2023-04-24T06:04:32;97548.71;;;13.08;63.48
77381;BME280;66439;50.106;10.996;2023-04-24T06:06:36;97553.95;;;13.08;63.69
77381;BME280;66439;50.106;10.996;2023-04-24T06:08:41;97551.88;;;13.07;63.54
77381;BME280;66439;50.106;10.996;2023-04-24T06:10:47;97551.61;;;13.05;63.62
77381;BME280;66439;50.106;10.996;2023-04-24T06:12:51;97552.42;;;13.07;63.55
77381;BME280;66439;50.106;10.996;2023-04-24T06:14:55;97552.86;;;13.10;63.59
77381;BME280;66439;50.106;10.996;2023-04-24T06:17:06;97552.11;;;13.11;63.51
77381;BME280;66439;50.106;10.996;2023-04-24T06:19:11;97549.09;;;13.12;63.77
77381;BME280;66439;50.106;10.996;2023-04-24T06:21:16;97552.35;;;13.14;63.74
77381;BME280;66439;50.106;10.996;2023-04-24T06:23:20;97555.33;;;13.19;63.55
77381;BME280;66439;50.106;10.996;2023-04-24T06:25:25;97558.30;;;13.20;63.48
77381;BME280;66439;50.106;10.996;2023-04-24T06:27:29;97563.99;;;13.21;63.51
77381;BME280;66439;50.106;10.996;2023-04-24T06:29:33;97571.96;;;13.18;63.59
77381;BME280;66439;50.106;10.996;2023-04-24T06:31:37;97571.25;;;13.13;63.84
77381;BME280;66439;50.106;10.996;2023-04-24T06:33:41;97570.64;;;13.10;63.99
77381;BME280;66439;50.106;10.996;2023-04-24T06:35:45;97569.76;;;13.05;63.99
77381;BME280;66439;50.106;10.996;2023-04-24T06:37:47;97573.58;;;13.02;63.98
77381;BME280;66439;50.106;10.996;2023-04-24T06:39:50;97572.59;;;12.99;63.74
77381;BME280;66439;50.106;10.996;2023-04-24T06:41:55;97571.23;;;12.96;63.94
77381;BME280;66439;50.106;10.996;2023-04-24T06:44:01;97574.33;;;12.92;63.76
77381;BME280;66439;50.106;10.996;2023-04-24T06:46:12;97576.35;;;12.92;63.90
77381;BME280;66439;50.106;10.996;2023-04-24T06:48:15;97580.19;;;12.90;63.76
77381;BME280;66439;50.106;10.996;2023-04-24T06:50:19;97581.16;;;12.88;63.86
77381;BME280;66439;50.106;10.996;2023-04-24T06:52:22;97586.27;;;12.90;63.83
77381;BME280;66439;50.106;10.996;2023-04-24T06:54:25;97583.53;;;12.91;63.52
77381;BME280;66439;50.106;10.996;2023-04-24T06:56:29;97582.34;;;12.92;63.14
77381;BME280;66439;50.106;10.996;2023-04-24T06:58:32;97582.54;;;12.95;63.19
77381;BME280;66439;50.106;10.996;2023-04-24T07:00:34;97582.15;;;12.94;62.82
77381;BME280;66439;50.106;10.996;2023-04-24T07:02:38;97588.39;;;12.94;62.68
77381;BME280;66439;50.106;10.996;2023-04-24T07:04:41;97587.34;;;12.92;62.70
77381;BME280;66439;50.106;10.996;2023-04-24T07:06:47;97591.94;;;12.92;62.10
77381;BME280;66439;50.106;10.996;2023-04-24T07:08:51;97589.63;;;12.90;61.99
77381;BME280;66439;50.106;10.996;2023-04-24T07:10:57;97591.55;;;12.86;61.85
77381;BME280;66439;50.106;10.996;2023-04-24T07:13:02;97598.35;;;12.89;62.08
77381;BME280;66439;50.106;10.996;2023-04-24T07:15:08;97600.73;;;12.88;61.63
77381;BME280;66439;50.106;10.996;2023-04-24T07:17:12;97603.86;;;12.87;61.21
77381;BME280;66439;50.106;10.996;2023-04-24T07:19:15;97603.15;;;12.88;60.88
77381;BME280;66439;50.106;10.996;2023-04-24T07:21:19;97614.21;;;12.86;60.38
77381;BME280;66439;50.106;10.996;2023-04-24T07:23:22;97619.44;;;12.82;60.09
77381;BME280;66439;50.106;10.996;2023-04-24T07:25:25;97622.86;;;12.80;60.24
77381;BME280;66439;50.106;10.996;2023-04-24T07:27:28;97626.38;;;12.81;60.08
77381;BME280;66439;50.106;10.996;2023-04-24T07:29:32;97628.64;;;12.80;59.99
77381;BME280;66439;50.106;10.996;2023-04-24T07:31:36;97628.09;;;12.79;59.90
77381;BME280;66439;50.106;10.996;2023-04-24T07:33:42;97630.16;;;12.80;59.80
77381;BME280;66439;50.106;10.996;2023-04-24T07:35:45;97629.31;;;12.79;59.67
77381;BME280;66439;50.106;10.996;2023-04-24T07:37:48;97626.71;;;12.81;59.60
77381;BME280;66439;50.106;10.996;2023-04-24T07:39:52;97626.80;;;12.86;59.73
77381;BME280;66439;50.106;10.996;2023-04-24T07:41:56;97628.55;;;12.95;59.99
77381;BME280;66439;50.106;10.996;2023-04-24T07:43:59;97628.16;;;13.08;60.21
77381;BME280;66439;50.106;10.996;2023-04-24T07:46:04;97631.25;;;13.16;59.78
77381;BME280;66439;50.106;10.996;2023-04-24T07:48:10;97621.36;;;13.20;59.57
77381;BME280;66439;50.106;10.996;2023-04-24T07:50:14;97623.96;;;13.23;59.42
77381;BME280;66439;50.106;10.996;2023-04-24T07:52:19;97625.13;;;13.26;59.36
77381;BME280;66439;50.106;10.996;2023-04-24T07:54:23;97625.88;;;13.28;59.18
77381;BME280;66439;50.106;10.996;2023-04-24T07:56:27;97631.64;;;13.26;58.99
77381;BME280;66439;50.106;10.996;2023-04-24T07:58:34;97632.64;;;13.25;58.94
77381;BME280;66439;50.106;10.996;2023-04-24T08:00:37;97632.09;;;13.23;58.60
77381;BME280;66439;50.106;10.996;2023-04-24T08:02:40;97639.27;;;13.21;58.14
77381;BME280;66439;50.106;10.996;2023-04-24T08:04:46;97644.27;;;13.18;57.89
77381;BME280;66439;50.106;10.996;2023-04-24T08:06:51;97650.69;;;13.19;58.28
77381;BME280;66439;50.106;10.996;2023-04-24T08:08:57;97652.25;;;13.21;58.15
77381;BME280;66439;50.106;10.996;2023-04-24T08:11:01;97649.50;;;13.23;57.90
77381;BME280;66439;50.106;10.996;2023-04-24T08:13:06;97640.89;;;13.25;57.87
77381;BME280;66439;50.106;10.996;2023-04-24T08:15:11;97641.39;;;13.25;57.27
77381;BME280;66439;50.106;10.996;2023-04-24T08:17:17;97647.27;;;13.25;57.15
77381;BME280;66439;50.106;10.996;2023-04-24T08:19:20;97644.99;;;13.24;57.13
77381;BME280;66439;50.106;10.996;2023-04-24T08:21:26;97653.11;;;13.23;57.00
77381;BME280;66439;50.106;10.996;2023-04-24T08:23:30;97655.89;;;13.24;57.06
77381;BME280;66439;50.106;10.996;2023-04-24T08:25:33;97656.48;;;13.26;56.72
77381;BME280;66439;50.106;10.996;2023-04-24T08:27:38;97659.85;;;13.29;56.36
77381;BME280;66439;50.106;10.996;2023-04-24T08:29:41;97658.35;;;13.30;56.45
77381;BME280;66439;50.106;10.996;2023-04-24T08:31:46;97656.42;;;13.36;56.23
77381;BME280;66439;50.106;10.996;2023-04-24T08:33:52;97662.44;;;13.42;55.97
77381;BME280;66439;50.106;10.996;2023-04-24T08:35:56;97664.42;;;13.42;55.19
77381;BME280;66439;50.106;10.996;2023-04-24T08:37:59;97664.66;;;13.37;54.70
77381;BME280;66439;50.106;10.996;2023-04-24T08:40:06;97671.02;;;13.33;54.86
77381;BME280;66439;50.106;10.996;2023-04-24T08:42:14;97667.98;;;13.33;54.48
77381;BME280;66439;50.106;10.996;2023-04-24T08:44:19;97676.48;;;13.33;53.88
77381;BME280;66439;50.106;10.996;2023-04-24T08:46:30;97676.89;;;13.29;53.45
77381;BME280;66439;50.106;10.996;2023-04-24T08:48:34;97680.73;;;13.26;53.57
77381;BME280;66439;50.106;10.996;2023-04-24T08:50:40;97679.41;;;13.25;53.34
77381;BME280;66439;50.106;10.996;2023-04-24T08:52:47;97683.95;;;13.21;52.54
77381;BME280;66439;50.106;10.996;2023-04-24T08:55:03;97675.52;;;13.17;52.37
77381;BME280;66439;50.106;10.996;2023-04-24T08:57:08;97686.23;;;13.15;51.98
77381;BME280;66439;50.106;10.996;2023-04-24T08:59:14;97685.79;;;13.12;52.25
77381;BME280;66439;50.106;10.996;2023-04-24T09:01:23;97690.76;;;13.08;52.01
77381;BME280;66439;50.106;10.996;2023-04-24T09:03:28;97687.70;;;13.07;52.11
77381;BME280;66439;50.106;10.996;2023-04-24T09:05:33;97691.94;;;13.09;52.01
77381;BME280;66439;50.106;10.996;2023-04-24T09:07:37;97692.48;;;13.10;52.19
77381;BME280;66439;50.106;10.996;2023-04-24T09:09:46;97694.27;;;13.09;52.08
77381;BME280;66439;50.106;10.996;2023-04-24T09:11:53;97690.45;;;13.09;52.35
77381;BME280;66439;50.106;10.996;2023-04-24T09:14:00;97690.23;;;13.11;52.40
77381;BME280;66439;50.106;10.996;2023-04-24T09:16:03;97689.70;;;13.13;52.45
77381;BME280;66439;50.106;10.996;2023-04-24T09:18:11;97692.54;;;13.14;52.30
77381;BME280;66439;50.106;10.996;2023-04-24T09:20:20;97682.45;;;13.19;52.45
77381;BME280;66439;50.106;10.996;2023-04-24T09:22:24;97678.93;;;13.23;52.49
77381;BME280;66439;50.106;10.996;2023-04-24T09:24:29;97682.21;;;13.23;52.13
77381;BME280;66439;50.106;10.996;2023-04-24T09:26:34;97682.45;;;13.23;51.75
77381;BME280;66439;50.106;10.996;2023-04-24T09:28:41;97683.00;;;13.23;52.14
77381;BME280;66439;50.106;10.996;2023-04-24T09:30:44;97682.42;;;13.23;52.08
77381;BME280;66439;50.106;10.996;2023-04-24T09:32:47;97685.54;;;13.24;51.99
77381;BME280;66439;50.106;10.996;2023-04-24T09:35:06;97679.50;;;13.22;51.89
77381;BME280;66439;50.106;10.996;2023-04-24T09:37:11;97679.08;;;13.20;51.87
77381;BME280;66439;50.106;10.996;2023-04-24T09:39:16;97678.19;;;13.21;52.05
77381;BME280;66439;50.106;10.996;2023-04-24T09:41:23;97681.35;;;13.23;51.99
77381;BME280;66439;50.106;10.996;2023-04-24T09:43:29;97680.80;;;13.25;51.81
77381;BME280;66439;50.106;10.996;2023-04-24T09:45:37;97679.13;;;13.27;51.97
77381;BME280;66439;50.106;10.996;2023-04-24T09:47:41;97673.02;;;13.30;51.86
77381;BME280;66439;50.106;10.996;2023-04-24T09:49:44;97676.00;;;13.32;51.91
77381;BME280;66439;50.106;10.996;2023-04-24T09:51:49;97670.11;;;13.33;51.80
77381;BME280;66439;50.106;10.996;2023-04-24T09:53:53;97673.66;;;13.34;51.74
77381;BME280;66439;50.106;10.996;2023-04-24T09:56:10;97675.61;;;13.35;51.58
77381;BME280;66439;50.106;10.996;2023-04-24T09:58:25;97678.59;;;13.34;51.41
77381;BME280;66439;50.106;10.996;2023-04-24T10:00:31;97676.71;;;13.33;50.99
77381;BME280;66439;50.106;10.996;2023-04-24T10:02:37;97675.88;;;13.31;50.63
77381;BME280;66439;50.106;10.996;2023-04-24T10:04:54;97680.92;;;13.28;50.91
77381;BME280;66439;50.106;10.996;2023-04-24T10:06:58;97683.17;;;13.29;50.86
77381;BME280;66439;50.106;10.996;2023-04-24T10:09:02;97681.60;;;13.27;51.11
77381;BME280;66439;50.106;10.996;2023-04-24T10:11:07;97689.25;;;13.30;51.47
77381;BME280;66439;50.106;10.996;2023-04-24T10:13:11;97686.78;;;13.32;51.28
77381;BME280;66439;50.106;10.996;2023-04-24T10:15:17;97688.52;;;13.31;51.47
77381;BME280;66439;50.106;10.996;2023-04-24T10:17:25;97693.94;;;13.35;51.36
77381;BME280;66439;50.106;10.996;2023-04-24T10:19:30;97700.20;;;13.40;51.22
77381;BME280;66439;50.106;10.996;2023-04-24T10:21:37;97703.36;;;13.43;50.86
77381;BME280;66439;50.106;10.996;2023-04-24T10:23:48;97702.65;;;13.47;50.32
77381;BME280;66439;50.106;10.996;2023-04-24T10:25:52;97703.41;;;13.49;50.34
77381;BME280;66439;50.106;10.996;2023-04-24T10:27:56;97706.29;;;13.51;50.29
77381;BME280;66439;50.106;10.996;2023-04-24T10:30:05;97704.67;;;13.54;50.42
77381;BME280;66439;50.106;10.996;2023-04-24T10:32:11;97702.27;;;13.56;50.17
77381;BME280;66439;50.106;10.996;2023-04-24T10:34:17;97703.27;;;13.58;49.95
77381;BME280;66439;50.106;10.996;2023-04-24T10:36:24;97704.85;;;13.59;49.75
77381;BME280;66439;50.106;10.996;2023-04-24T10:38:31;97709.92;;;13.63;49.51
77381;BME280;66439;50.106;10.996;2023-04-24T10:40:36;97706.27;;;13.64;48.96
77381;BME280;66439;50.106;10.996;2023-04-24T10:42:40;97701.77;;;13.66;49.20
77381;BME280;66439;50.106;10.996;2023-04-24T10:44:48;97705.71;;;13.68;49.20
77381;BME280;66439;50.106;10.996;2023-04-24T10:46:55;97707.66;;;13.73;49.31
77381;BME280;66439;50.106;10.996;2023-04-24T10:49:06;97711.66;;;13.75;49.02
77381;BME280;66439;50.106;10.996;2023-04-24T10:51:12;97710.33;;;13.76;49.04
77381;BME280;66439;50.106;10.996;2023-04-24T10:53:22;97719.48;;;13.77;49.07
77381;BME280;66439;50.106;10.996;2023-04-24T10:55:45;97717.52;;;13.76;48.83
77381;BME280;66439;50.106;10.996;2023-04-24T10:58:03;97720.55;;;13.76;49.15